Time;durP1;ratioP1;P1;durP2;ratioP2;P2;SDS_P1;SDS_P2;PMS_P1;PMS_P2;Temp;Humidity;BMP_temperature;BMP_pressure;BME280_temperature;BME280_humidity;BME280_pressure;Samples;Min_cycle;Max_cycle;Signal;HPM_P1;HPM_P2
2023/03/20 00:01:29;;;;;;;90.90;51.10;;;;;;;-0.87;100.00;100148.29;110204;1277;22441;-65
2023/03/20 00:03:58;;;;;;;80.70;46.60;;;;;;;-0.87;100.00;100143.30;110191;1272;22283;-65
2023/03/20 00:06:30;;;;;;;77.70;46.10;;;;;;;-0.88;100.00;100135.39;110249;1271;22179;-65
2023/03/20 00:08:58;;;;;;;81.60;47.20;;;;;;;-0.92;100.00;100131.03;110202;1278;22209;-65
2023/03/20 00:11:43;;;;;;;80.60;49.10;;;;;;;-0.99;100.00;100130.05;110154;1278;22444;-65
2023/03/20 00:14:14;;;;;;;88.60;52.00;;;;;;;-1.05;100.00;100123.67;110168;1278;22307;-65
2023/03/20 00:16:43;;;;;;;94.60;52.60;;;;;;;-1.11;100.00;100121.60;110135;1276;22395;-65
2023/03/20 00:19:22;;;;;;;95.50;54.20;;;;;;;-1.10;100.00;100115.16;110151;1277;22197;-65
2023/03/20 00:21:51;;;;;;;91.10;50.40;;;;;;;-1.08;100.00;100109.06;110183;1272;22433;-65
2023/03/20 00:24:21;;;;;;;89.90;50.30;;;;;;;-1.03;100.00;100109.15;106791;1270;24241;-64
2023/03/20 00:27:12;;;;;;;93.00;52.50;;;;;;;-0.99;100.00;100106.73;107524;1271;25342;-64
2023/03/20 00:29:41;;;;;;;96.60;54.40;;;;;;;-1.01;100.00;100100.84;106825;1273;24388;-64
2023/03/20 00:32:10;;;;;;;102.30;55.80;;;;;;;-1.03;100.00;100098.44;107347;1272;22551;-65
2023/03/20 00:34:42;;;;;;;117.00;62.10;;;;;;;-1.05;100.00;100096.35;106991;1275;22586;-64
2023/03/20 00:37:13;;;;;;;100.50;56.20;;;;;;;-1.02;100.00;100095.98;106697;1275;23742;-65
2023/03/20 00:39:45;;;;;;;120.30;59.80;;;;;;;-1.02;100.00;100097.20;106982;1276;25349;-64
2023/03/20 00:42:19;;;;;;;118.50;60.60;;;;;;;-1.02;100.00;100096.03;106967;1275;25341;-64
2023/03/20 00:44:58;;;;;;;146.40;65.60;;;;;;;-1.04;100.00;100097.11;106737;1272;23797;-64
2023/03/20 00:47:27;;;;;;;128.20;65.40;;;;;;;-1.12;100.00;100095.52;106626;1275;23929;-64
2023/03/20 00:49:56;;;;;;;127.00;61.90;;;;;;;-1.19;100.00;100092.64;106898;1269;23706;-64
2023/03/20 00:52:26;;;;;;;104.20;54.60;;;;;;;-1.18;100.00;100100.19;106768;1269;26946;-64
2023/03/20 00:54:54;;;;;;;120.30;62.10;;;;;;;-1.17;100.00;100099.46;106737;1273;24421;-64
2023/03/20 00:57:30;;;;;;;113.50;58.90;;;;;;;-1.17;100.00;100100.20;106839;1275;22523;-63
2023/03/20 01:00:06;;;;;;;113.20;59.90;;;;;;;-1.21;100.00;100094.68;110403;1275;22229;-65
2023/03/20 01:02:36;;;;;;;;;;;;;;;-1.28;100.00;100093.07;110383;1270;23183;-65
2023/03/20 01:05:04;;;;;;;108.00;55.30;;;;;;;-1.39;100.00;100091.70;110348;1269;22296;-65
2023/03/20 01:07:33;;;;;;;96.90;50.80;;;;;;;-1.48;100.00;100090.30;110391;1275;22352;-65
2023/03/20 01:10:04;;;;;;;107.30;56.20;;;;;;;-1.45;100.00;100092.69;110376;1269;22340;-65
2023/03/20 01:12:32;;;;;;;115.00;53.40;;;;;;;-1.41;100.00;100089.80;110337;1275;22212;-65
2023/03/20 01:15:01;;;;;;;90.20;50.70;;;;;;;-1.35;100.00;100087.31;110353;1274;22307;-65
2023/03/20 01:17:30;;;;;;;94.40;51.10;;;;;;;-1.31;100.00;100094.68;110344;1275;22334;-66
2023/03/20 01:19:58;;;;;;;93.40;53.00;;;;;;;-1.34;100.00;100092.80;107364;1268;23443;-65
2023/03/20 01:22:26;;;;;;;112.20;59.90;;;;;;;-1.39;100.00;100090.98;107145;1275;26114;-64
2023/03/20 01:24:55;;;;;;;97.30;51.90;;;;;;;-1.40;100.00;100085.65;106719;1275;25361;-64
2023/03/20 01:27:24;;;;;;;96.60;52.00;;;;;;;-1.38;100.00;100087.52;107022;1269;25359;-64
2023/03/20 01:29:53;;;;;;;100.60;52.80;;;;;;;-1.39;100.00;100090.71;106521;1273;26601;-65
2023/03/20 01:32:21;;;;;;;90.60;51.60;;;;;;;-1.42;100.00;100091.59;106734;1270;25351;-64
2023/03/20 01:34:51;;;;;;;107.40;56.10;;;;;;;-1.50;100.00;100091.14;106579;1270;22511;-64
2023/03/20 01:37:25;;;;;;;103.90;55.60;;;;;;;-1.61;100.00;100087.23;106999;1272;27676;-64
2023/03/20 01:39:59;;;;;;;98.90;53.40;;;;;;;-1.70;100.00;100089.80;106918;1275;25344;-64
2023/03/20 01:42:29;;;;;;;104.00;52.00;;;;;;;-1.73;100.00;100083.89;106756;1275;25261;-64
2023/03/20 01:44:57;;;;;;;99.10;53.50;;;;;;;-1.74;100.00;100080.77;106867;1275;22763;-64
2023/03/20 01:47:27;;;;;;;98.40;52.40;;;;;;;-1.76;100.00;100083.05;106787;1275;25329;-64
2023/03/20 01:50:25;;;;;;;102.60;55.40;;;;;;;-1.84;100.00;100085.84;106750;1275;25646;-64
2023/03/20 01:53:09;;;;;;;108.30;57.00;;;;;;;-1.95;100.00;100087.48;110366;1275;22273;-65
2023/03/20 01:55:41;;;;;;;110.20;54.40;;;;;;;-2.05;100.00;100088.27;110345;1275;22396;-66
2023/03/20 01:58:14;;;;;;;99.00;53.90;;;;;;;-2.05;100.00;100084.54;110360;1275;22425;-65
2023/03/20 02:00:43;;;;;;;93.40;50.20;;;;;;;-2.01;100.00;100084.15;110270;1275;22294;-65
2023/03/20 02:03:12;;;;;;;110.50;54.20;;;;;;;-1.98;100.00;100087.18;110320;1275;22200;-65
2023/03/20 02:05:59;;;;;;;102.60;54.20;;;;;;;-1.97;100.00;100084.46;110255;1275;22282;-65
2023/03/20 02:08:52;;;;;;;107.80;56.60;;;;;;;-1.95;100.00;100087.32;110349;1273;22453;-65
2023/03/20 02:11:23;;;;;;;104.30;52.60;;;;;;;-1.92;100.00;100079.07;110177;1275;22473;-65
2023/03/20 02:13:52;;;;;;;83.80;46.60;;;;;;;-1.84;100.00;100079.27;110258;1275;23063;-65
2023/03/20 02:16:24;;;;;;;78.80;44.10;;;;;;;-1.79;100.00;100078.80;110241;1272;22269;-65
2023/03/20 02:19:20;;;;;;;64.70;36.90;;;;;;;-1.75;100.00;100071.71;110283;1275;23118;-65
2023/03/20 02:22:11;;;;;;;68.00;39.60;;;;;;;-1.71;100.00;100070.54;110157;1276;22966;-65
2023/03/20 02:24:52;;;;;;;71.00;40.60;;;;;;;-1.73;100.00;100065.02;110314;1275;23110;-65
2023/03/20 02:27:36;;;;;;;59.40;34.10;;;;;;;-1.76;100.00;100067.68;110346;1275;22431;-65
2023/03/20 02:30:30;;;;;;;48.70;28.50;;;;;;;-1.77;100.00;100062.98;110266;1270;23395;-65
2023/03/20 02:33:15;;;;;;;49.10;29.10;;;;;;;-1.73;100.00;100060.20;110350;1275;22262;-65
2023/03/20 02:36:11;;;;;;;56.80;34.30;;;;;;;-1.68;100.00;100059.16;110392;1275;22342;-65
2023/03/20 02:38:59;;;;;;;51.80;33.30;;;;;;;-1.65;100.00;100052.88;110352;1273;23011;-66
2023/03/20 02:41:31;;;;;;;56.00;32.60;;;;;;;-1.66;100.00;100055.98;110321;1275;23492;-65
2023/03/20 02:44:23;;;;;;;67.40;40.20;;;;;;;-1.71;100.00;100061.59;110243;1275;22292;-65
2023/03/20 02:47:06;;;;;;;80.20;45.00;;;;;;;-1.77;100.00;100064.55;110318;1275;22407;-65
2023/03/20 02:49:53;;;;;;;84.80;46.90;;;;;;;-1.89;100.00;100061.91;110333;1269;22445;-65
2023/03/20 02:52:37;;;;;;;91.10;50.30;;;;;;;-1.93;100.00;100065.04;110196;1271;22318;-65
2023/03/20 02:55:32;;;;;;;92.00;50.00;;;;;;;-1.94;100.00;100060.03;110151;1276;22287;-65
2023/03/20 02:58:25;;;;;;;95.10;51.90;;;;;;;-1.95;100.00;100058.57;110262;1270;22287;-66
2023/03/20 03:01:01;;;;;;;96.10;52.60;;;;;;;-2.02;100.00;100056.14;107342;1269;25281;-64
2023/03/20 03:03:58;;;;;;;100.10;54.90;;;;;;;-2.07;100.00;100050.73;107197;1276;22903;-64
2023/03/20 03:06:28;;;;;;;104.40;53.60;;;;;;;-2.11;100.00;100049.03;107575;1275;22501;-64
2023/03/20 03:09:10;;;;;;;102.10;53.70;;;;;;;-2.10;100.00;100046.59;107182;1275;24371;-64
2023/03/20 03:11:43;;;;;;;95.50;50.60;;;;;;;-2.10;100.00;100044.27;106539;1275;25389;-64
2023/03/20 03:14:49;;;;;;;95.10;53.30;;;;;;;-2.13;100.00;100047.08;107090;1275;22961;-65
2023/03/20 03:17:23;;;;;;;96.80;53.60;;;;;;;-2.24;100.00;100042.77;106356;1275;23734;-64
2023/03/20 03:19:54;;;;;;;103.50;54.90;;;;;;;-2.33;100.00;100042.82;106532;1275;25437;-64
2023/03/20 03:22:23;;;;;;;106.90;54.80;;;;;;;-2.41;100.00;100040.40;106707;1275;24203;-65
2023/03/20 03:24:52;;;;;;;97.90;52.30;;;;;;;-2.50;100.00;100040.52;106682;1269;26815;-65
2023/03/20 03:27:26;;;;;;;87.40;48.90;;;;;;;-2.50;100.00;100040.55;106638;1273;23737;-64
2023/03/20 03:30:02;;;;;;;85.70;47.50;;;;;;;-2.50;100.00;100046.08;106603;1276;24453;-65
2023/03/20 03:32:36;;;;;;;86.50;47.30;;;;;;;-2.50;100.00;100043.88;106956;1273;22759;-64
2023/03/20 03:35:06;;;;;;;83.10;47.40;;;;;;;-2.52;100.00;100043.89;106693;1275;26148;-64
2023/03/20 03:37:58;;;;;;;77.50;45.70;;;;;;;-2.59;100.00;100037.65;106748;1275;24179;-64
2023/03/20 03:40:29;;;;;;;88.50;47.60;;;;;;;-2.66;100.00;100031.95;110387;1271;22268;-65
2023/03/20 03:43:02;;;;;;;79.00;45.20;;;;;;;-2.65;100.00;100030.08;110402;1273;22235;-65
2023/03/20 03:45:32;;;;;;;76.50;45.30;;;;;;;-2.64;100.00;100030.23;110379;1269;22402;-65
2023/03/20 03:48:10;;;;;;;75.60;44.10;;;;;;;-2.64;100.00;100031.71;110347;1276;22777;-66
2023/03/20 03:50:47;;;;;;;76.40;45.40;;;;;;;-2.63;100.00;100031.98;110153;1275;22295;-65
2023/03/20 03:53:29;;;;;;;81.70;46.10;;;;;;;-2.66;100.00;100025.85;110314;1275;22814;-65
2023/03/20 03:56:07;;;;;;;85.60;45.10;;;;;;;-2.71;100.00;100016.88;110112;1273;23030;-65
2023/03/20 03:58:39;;;;;;;76.20;44.50;;;;;;;-2.70;100.00;100018.23;107359;1275;24310;-64
2023/03/20 04:01:10;;;;;;;77.70;43.80;;;;;;;-2.69;100.00;100018.39;106855;1272;26533;-64
2023/03/20 04:03:59;;;;;;;75.10;44.10;;;;;;;-2.68;100.00;100017.61;106991;1270;25217;-63
2023/03/20 04:06:28;;;;;;;74.40;42.70;;;;;;;-2.70;100.00;100014.50;106460;1273;22516;-63
2023/03/20 04:08:58;;;;;;;74.90;43.70;;;;;;;-2.73;100.00;100017.45;106905;1275;23720;-64
2023/03/20 04:11:28;;;;;;;79.90;45.00;;;;;;;-2.74;100.00;100018.00;106651;1275;25940;-64
2023/03/20 04:13:56;;;;;;;87.40;47.20;;;;;;;-2.78;100.00;100021.96;106656;1272;26163;-64
2023/03/20 04:16:25;;;;;;;97.50;51.60;;;;;;;-2.75;100.00;100024.00;107178;1273;26427;-64
2023/03/20 04:18:57;;;;;;;100.20;54.30;;;;;;;-2.71;100.00;100023.18;107153;1275;22529;-64
2023/03/20 04:21:26;;;;;;;105.10;53.60;;;;;;;-2.67;100.00;100023.66;106939;1272;24203;-64
2023/03/20 04:23:55;;;;;;;99.20;53.20;;;;;;;-2.62;100.00;100026.19;106863;1272;25357;-64
2023/03/20 04:26:23;;;;;;;97.10;53.00;;;;;;;-2.64;100.00;100024.54;106920;1275;23066;-64
2023/03/20 04:28:52;;;;;;;101.60;56.00;;;;;;;-2.66;100.00;100026.39;106910;1275;23735;-64
2023/03/20 04:31:41;;;;;;;93.00;51.00;;;;;;;-2.67;100.00;100026.86;106450;1275;26343;-65
2023/03/20 04:34:18;;;;;;;93.40;50.50;;;;;;;-2.61;100.00;100027.61;106844;1270;25327;-65
2023/03/20 04:37:09;;;;;;;90.80;49.20;;;;;;;-2.53;100.00;100025.81;106697;1272;23750;-65
2023/03/20 04:39:47;;;;;;;86.80;49.10;;;;;;;-2.45;100.00;100027.00;107013;1272;25347;-65
2023/03/20 04:42:16;;;;;;;83.00;48.60;;;;;;;-2.36;100.00;100028.92;106584;1253;23666;-64
2023/03/20 04:44:44;;;;;;;82.80;48.60;;;;;;;-2.33;100.00;100025.52;110377;1275;23486;-65
2023/03/20 04:47:13;;;;;;;82.20;48.60;;;;;;;-2.27;100.00;100023.23;110192;1272;22524;-65
2023/03/20 04:49:46;;;;;;;87.40;50.40;;;;;;;-2.16;100.00;100023.31;110377;1275;22270;-65
2023/03/20 04:52:15;;;;;;;82.50;49.30;;;;;;;-1.98;100.00;100024.52;110357;1275;22774;-65
2023/03/20 04:54:44;;;;;;;88.70;49.60;;;;;;;-1.77;100.00;100025.20;110331;1275;22266;-65
2023/03/20 04:57:13;;;;;;;83.20;50.00;;;;;;;-1.59;100.00;100024.89;110390;1275;22223;-65
2023/03/20 04:59:42;;;;;;;79.90;47.10;;;;;;;-1.40;100.00;100028.17;110334;1269;22303;-65
2023/03/20 05:02:16;;;;;;;73.20;45.30;;;;;;;-1.24;100.00;100022.60;110383;1275;22270;-65
2023/03/20 05:04:45;;;;;;;70.20;45.20;;;;;;;-1.15;100.00;100020.85;110322;1275;22417;-66
2023/03/20 05:07:13;;;;;;;69.80;45.20;;;;;;;-1.08;100.00;100025.91;110363;1275;23312;-66
2023/03/20 05:10:03;;;;;;;69.70;43.10;;;;;;;-0.97;100.00;100023.30;110375;1275;22434;-66
2023/03/20 05:12:41;;;;;;;68.70;43.20;;;;;;;-0.81;100.00;100021.27;110360;1272;22376;-65
2023/03/20 05:15:25;;;;;;;59.90;37.70;;;;;;;-0.66;100.00;100024.25;110420;1275;22384;-65
2023/03/20 05:18:06;;;;;;;58.60;38.20;;;;;;;-0.44;100.00;100026.53;110424;1275;22402;-65
2023/03/20 05:20:41;;;;;;;58.90;40.00;;;;;;;-0.24;100.00;100028.61;110400;1272;23273;-66
2023/03/20 05:23:31;;;;;;;60.30;39.10;;;;;;;-0.05;100.00;100036.66;110400;1275;22311;-66
2023/03/20 05:26:18;;;;;;;63.70;37.20;;;;;;;0.04;100.00;100040.55;110390;1275;22415;-65
2023/03/20 05:29:05;;;;;;;59.60;35.40;;;;;;;0.13;100.00;100036.90;110372;1269;22402;-66
2023/03/20 05:31:54;;;;;;;56.00;34.10;;;;;;;0.25;100.00;100034.38;110385;1275;22198;-66
2023/03/20 05:34:35;;;;;;;49.40;32.70;;;;;;;0.37;100.00;100042.59;110300;1273;22742;-65
2023/03/20 05:37:04;;;;;;;51.30;33.30;;;;;;;0.51;100.00;100047.02;110356;1269;22429;-66
2023/03/20 05:39:52;;;;;;;52.80;33.70;;;;;;;0.61;100.00;100043.02;110331;1270;22346;-66
2023/03/20 05:42:42;;;;;;;45.70;31.50;;;;;;;0.68;100.00;100042.11;110402;1275;22959;-65
2023/03/20 05:45:33;;;;;;;42.60;30.40;;;;;;;0.79;100.00;100048.33;110259;1273;22294;-65
2023/03/20 05:48:01;;;;;;;41.70;30.20;;;;;;;0.94;100.00;100051.55;110414;1275;22269;-65
2023/03/20 05:50:45;;;;;;;41.80;29.80;;;;;;;1.21;100.00;100051.65;110347;1270;22628;-66
2023/03/20 05:53:32;;;;;;;35.30;23.90;;;;;;;1.42;100.00;100059.48;110282;1270;22754;-66
2023/03/20 05:56:30;;;;;;;46.90;31.20;;;;;;;1.73;100.00;100060.73;110345;1275;22298;-66
2023/03/20 05:59:21;;;;;;;43.40;31.00;;;;;;;2.08;100.00;100071.37;110067;1272;25289;-65
2023/03/20 06:02:08;;;;;;;43.80;30.50;;;;;;;2.44;100.00;100076.80;107493;1275;22506;-67
2023/03/20 06:04:39;;;;;;;43.60;30.00;;;;;;;2.82;100.00;100078.36;107381;1275;23872;-66
2023/03/20 06:07:24;;;;;;;38.10;28.10;;;;;;;3.26;100.00;100082.23;107558;1273;22568;-65
2023/03/20 06:10:09;;;;;;;38.50;29.40;;;;;;;3.55;100.00;100080.70;107625;1275;23486;-65
2023/03/20 06:12:38;;;;;;;37.80;29.20;;;;;;;3.70;100.00;100082.45;108126;1275;22524;-65
2023/03/20 06:15:07;;;;;;;37.90;28.80;;;;;;;4.01;100.00;100077.04;107530;1274;23317;-65
2023/03/20 06:17:41;;;;;;;35.60;27.40;;;;;;;4.36;100.00;100076.36;107587;1275;25461;-65
2023/03/20 06:20:13;;;;;;;34.10;27.10;;;;;;;4.66;100.00;100081.05;107570;1275;26474;-66
2023/03/20 06:22:43;;;;;;;34.70;26.80;;;;;;;4.83;100.00;100077.03;107600;1275;23078;-65
2023/03/20 06:25:15;;;;;;;35.60;27.10;;;;;;;5.01;100.00;100075.48;107692;1275;23601;-66
2023/03/20 06:27:47;;;;;;;33.40;26.30;;;;;;;5.30;100.00;100077.85;107574;1275;27566;-66
2023/03/20 06:30:21;;;;;;;31.80;25.70;;;;;;;5.48;100.00;100074.72;107540;1275;22530;-66
2023/03/20 06:32:51;;;;;;;31.40;24.20;;;;;;;5.45;100.00;100072.39;107727;1273;25256;-65
2023/03/20 06:35:20;;;;;;;31.80;23.90;;;;;;;5.50;100.00;100068.78;107553;1275;22592;-66
2023/03/20 06:37:50;;;;;;;34.50;24.50;;;;;;;5.58;100.00;100063.19;110360;1275;22894;-66
2023/03/20 06:40:22;;;;;;;37.50;25.90;;;;;;;5.55;100.00;100061.73;110364;1275;22204;-66
2023/03/20 06:42:50;;;;;;;40.60;26.90;;;;;;;5.54;100.00;100053.44;110374;1276;22259;-66
2023/03/20 06:45:20;;;;;;;47.60;27.60;;;;;;;5.62;100.00;100050.48;110396;1275;22275;-66
2023/03/20 06:48:11;;;;;;;40.50;28.70;;;;;;;5.76;100.00;100047.68;110404;1276;22235;-66
2023/03/20 06:50:40;;;;;;;47.50;28.80;;;;;;;5.90;100.00;100044.69;110362;1276;22921;-66
2023/03/20 06:53:09;;;;;;;43.20;30.20;;;;;;;6.03;100.00;100041.05;110139;1276;22293;-66
2023/03/20 06:55:51;;;;;;;42.20;28.20;;;;;;;6.28;100.00;100036.70;110154;1276;22193;-66
2023/03/20 06:58:19;;;;;;;40.40;30.30;;;;;;;6.40;100.00;100033.84;110368;1276;22407;-66
2023/03/20 07:00:53;;;;;;;41.30;27.70;;;;;;;6.33;100.00;100023.41;109428;1276;25277;-66
2023/03/20 07:03:22;;;;;;;38.00;28.20;;;;;;;6.37;100.00;100023.88;107564;1276;25344;-66
2023/03/20 07:05:51;;;;;;;38.20;27.80;;;;;;;6.49;100.00;100020.57;107869;1276;22522;-66
2023/03/20 07:08:20;;;;;;;40.50;30.20;;;;;;;6.52;100.00;100021.02;107503;1276;22582;-65
2023/03/20 07:10:50;;;;;;;38.20;29.00;;;;;;;6.61;100.00;100016.88;107434;1276;22647;-66
2023/03/20 07:13:19;;;;;;;36.70;29.10;;;;;;;6.73;100.00;100013.55;107462;1276;25466;-65
2023/03/20 07:16:07;;;;;;;41.00;30.80;;;;;;;6.85;100.00;100010.81;107495;1276;25332;-66
2023/03/20 07:18:38;;;;;;;36.10;29.00;;;;;;;6.86;100.00;100008.12;107552;1276;22546;-66
2023/03/20 07:21:08;;;;;;;38.60;28.70;;;;;;;6.98;100.00;100010.99;107583;1275;25324;-66
2023/03/20 07:23:37;;;;;;;36.60;29.00;;;;;;;7.21;100.00;100003.91;107552;1270;23748;-66
2023/03/20 07:26:06;;;;;;;40.20;29.80;;;;;;;7.37;100.00;99999.54;107481;1276;25354;-64
2023/03/20 07:28:37;;;;;;;41.10;30.70;;;;;;;7.35;100.00;99999.77;108872;1276;27417;-66
2023/03/20 07:31:21;;;;;;;39.70;29.10;;;;;;;7.39;100.00;99999.14;107484;1274;26872;-66
2023/03/20 07:33:54;;;;;;;37.70;30.40;;;;;;;7.52;100.00;99996.33;107383;1276;23492;-66
2023/03/20 07:36:22;;;;;;;34.00;28.60;;;;;;;7.71;100.00;99991.77;107376;1276;25331;-66
2023/03/20 07:38:51;;;;;;;35.80;28.10;;;;;;;7.94;100.00;99989.70;107497;1273;22535;-65
2023/03/20 07:41:19;;;;;;;36.50;28.50;;;;;;;8.05;100.00;99979.65;109667;1275;23463;-67
2023/03/20 07:43:57;;;;;;;35.00;27.60;;;;;;;8.21;100.00;99972.83;110358;1269;22318;-66
2023/03/20 07:46:51;;;;;;;34.30;28.30;;;;;;;8.33;100.00;99966.27;110448;1275;22293;-67
2023/03/20 07:49:22;;;;;;;32.80;27.50;;;;;;;8.50;100.00;99966.14;110377;1275;22434;-67
2023/03/20 07:51:53;;;;;;;37.30;28.30;;;;;;;8.78;100.00;99964.90;110360;1275;22360;-67
2023/03/20 07:54:23;;;;;;;32.20;26.10;;;;;;;9.04;100.00;99954.68;110443;1275;22197;-65
2023/03/20 07:56:52;;;;;;;32.50;24.70;;;;;;;9.22;100.00;99948.08;110380;1272;22211;-65
2023/03/20 07:59:23;;;;;;;28.50;23.90;;;;;;;9.43;100.00;99946.48;110412;1275;22429;-65
2023/03/20 08:01:51;;;;;;;27.10;21.40;;;;;;;9.75;100.00;99944.05;110419;1275;22205;-65
2023/03/20 08:04:21;;;;;;;27.30;21.50;;;;;;;10.04;100.00;99937.06;110435;1275;22943;-66
2023/03/20 08:06:50;;;;;;;20.60;16.70;;;;;;;10.13;100.00;99927.55;110391;1275;22968;-65
2023/03/20 08:09:19;;;;;;;21.90;17.30;;;;;;;10.18;100.00;99921.89;110333;1275;22211;-65
2023/03/20 08:11:51;;;;;;;23.30;17.80;;;;;;;10.16;100.00;99917.95;106690;1275;22539;-64
2023/03/20 08:14:20;;;;;;;20.70;17.80;;;;;;;10.23;100.00;99912.93;106520;1275;23905;-66
2023/03/20 08:16:48;;;;;;;24.60;18.20;;;;;;;10.30;100.00;99908.55;107387;1275;22573;-66
2023/03/20 08:19:35;;;;;;;21.90;16.80;;;;;;;10.31;100.00;99904.70;107351;1268;25326;-64
2023/03/20 08:22:04;;;;;;;23.50;17.90;;;;;;;10.49;100.00;99908.79;107523;1274;22530;-66
2023/03/20 08:24:33;;;;;;;24.00;18.50;;;;;;;10.69;100.00;99908.38;107585;1275;25503;-66
2023/03/20 08:27:01;;;;;;;24.90;20.10;;;;;;;10.83;100.00;99901.09;107417;1275;26532;-66
2023/03/20 08:29:29;;;;;;;21.80;18.60;;;;;;;10.88;100.00;99894.84;107691;1271;26276;-66
2023/03/20 08:31:58;;;;;;;22.40;18.50;;;;;;;10.96;100.00;99891.66;107577;1275;25223;-66
2023/03/20 08:34:27;;;;;;;22.70;17.90;;;;;;;10.95;100.00;99887.73;107616;1269;24298;-66
2023/03/20 08:36:55;;;;;;;23.50;17.80;;;;;;;10.87;100.00;99884.94;107527;1275;22554;-67
2023/03/20 08:39:24;;;;;;;23.10;17.50;;;;;;;10.84;100.00;99886.45;107611;1272;22689;-67
2023/03/20 08:41:53;;;;;;;20.30;15.10;;;;;;;10.90;100.00;99883.86;107594;1275;23240;-66
2023/03/20 08:44:21;;;;;;;17.90;14.10;;;;;;;11.01;100.00;99875.20;107376;1273;22650;-66
2023/03/20 08:46:49;;;;;;;20.40;16.00;;;;;;;11.06;100.00;99878.48;107425;1275;23622;-66
2023/03/20 08:49:17;;;;;;;17.60;14.30;;;;;;;11.02;100.00;99876.29;110314;1269;23245;-67
2023/03/20 08:51:46;;;;;;;20.50;14.80;;;;;;;11.09;100.00;99866.70;110381;1275;22341;-67
2023/03/20 08:54:17;;;;;;;18.90;14.10;;;;;;;11.13;100.00;99868.84;110306;1275;22187;-67
2023/03/20 08:56:45;;;;;;;20.20;16.20;;;;;;;11.09;100.00;99869.21;110371;1275;22434;-67
2023/03/20 08:59:14;;;;;;;20.60;15.60;;;;;;;11.03;100.00;99865.13;110330;1268;22293;-67
2023/03/20 09:01:42;;;;;;;19.20;14.20;;;;;;;11.06;100.00;99868.23;108095;1275;23793;-66
2023/03/20 09:04:17;;;;;;;19.30;14.70;;;;;;;11.18;100.00;99863.94;107514;1272;22514;-67
2023/03/20 09:06:46;;;;;;;14.50;10.30;;;;;;;11.41;100.00;99863.82;107468;1275;23204;-66
2023/03/20 09:09:15;;;;;;;14.30;11.80;;;;;;;11.48;100.00;99862.49;107528;1275;24358;-66
2023/03/20 09:11:43;;;;;;;15.70;12.10;;;;;;;11.44;100.00;99854.92;107438;1275;23717;-67
2023/03/20 09:14:12;;;;;;;14.00;9.90;;;;;;;11.37;100.00;99855.20;107377;1269;22534;-66
2023/03/20 09:16:40;;;;;;;15.00;12.20;;;;;;;11.35;100.00;99850.80;107413;1275;22612;-66
2023/03/20 09:19:09;;;;;;;13.40;9.90;;;;;;;11.38;100.00;99844.78;107298;1275;26593;-64
2023/03/20 09:21:37;;;;;;;15.20;11.20;;;;;;;11.35;100.00;99843.20;107281;1275;25344;-67
2023/03/20 09:24:06;;;;;;;14.80;12.10;;;;;;;11.43;100.00;99845.61;107371;1275;22535;-67
2023/03/20 09:26:35;;;;;;;17.20;13.10;;;;;;;11.46;100.00;99848.42;107696;1275;24209;-66
2023/03/20 09:29:04;;;;;;;16.80;12.80;;;;;;;11.38;100.00;99845.77;107598;1275;25278;-66
2023/03/20 09:31:35;;;;;;;17.00;13.20;;;;;;;11.33;100.00;99843.65;107617;1275;26489;-67
2023/03/20 09:34:03;;;;;;;16.40;12.90;;;;;;;11.43;100.00;99840.09;107634;1275;22745;-66
2023/03/20 09:36:32;;;;;;;16.40;12.60;;;;;;;11.50;100.00;99838.66;107385;1275;23364;-66
2023/03/20 09:39:00;;;;;;;17.10;13.50;;;;;;;11.43;100.00;99832.56;107430;1275;22904;-66
2023/03/20 09:41:36;;;;;;;16.50;12.50;;;;;;;11.36;100.00;99827.34;107637;1270;25493;-66
2023/03/20 09:44:48;;;;;;;16.50;12.60;;;;;;;11.47;100.00;99827.55;110395;1275;23403;-66
2023/03/20 09:47:37;;;;;;;18.00;12.60;;;;;;;11.57;100.00;99822.80;110392;1275;22177;-67
2023/03/20 09:50:21;;;;;;;14.60;11.70;;;;;;;11.60;100.00;99819.62;110411;1275;23105;-66
2023/03/20 09:52:59;;;;;;;18.60;13.30;;;;;;;11.67;100.00;99817.47;110406;1271;22203;-67
2023/03/20 09:55:36;;;;;;;17.40;13.30;;;;;;;11.53;100.00;99812.23;110400;1275;22790;-67
2023/03/20 09:58:09;;;;;;;17.40;13.10;;;;;;;11.28;100.00;99809.59;110412;1275;22191;-67
2023/03/20 10:00:37;;;;;;;17.40;14.10;;;;;;;11.31;100.00;99809.96;110391;1275;23030;-67
2023/03/20 10:03:21;;;;;;;21.60;15.10;;;;;;;11.32;100.00;99805.66;110371;1275;22201;-67
2023/03/20 10:06:14;;;;;;;18.30;13.30;;;;;;;11.34;100.00;99804.06;110273;1275;22268;-66
2023/03/20 10:08:42;;;;;;;16.50;11.90;;;;;;;11.38;100.00;99806.91;110327;1275;23259;-66
2023/03/20 10:11:34;;;;;;;15.90;12.80;;;;;;;11.42;100.00;99802.15;110375;1275;22462;-67
2023/03/20 10:14:06;;;;;;;16.40;13.20;;;;;;;11.29;100.00;99802.77;110404;1275;22215;-66
2023/03/20 10:16:41;;;;;;;16.60;12.40;;;;;;;11.04;100.00;99797.23;110393;1275;22200;-66
2023/03/20 10:19:30;;;;;;;19.50;14.20;;;;;;;10.83;100.00;99800.02;110405;1275;22410;-66
2023/03/20 10:22:17;;;;;;;16.00;12.60;;;;;;;10.69;100.00;99796.52;110376;1275;22656;-66
2023/03/20 10:25:13;;;;;;;17.00;13.00;;;;;;;10.64;100.00;99794.66;110382;1275;22872;-66
2023/03/20 10:27:43;;;;;;;15.30;11.80;;;;;;;10.62;100.00;99791.73;110400;1275;22942;-66
2023/03/20 10:30:49;;;;;;;15.80;11.80;;;;;;;10.58;100.00;99789.11;110363;1275;22447;-66
2023/03/20 10:34:00;;;;;;;17.70;12.90;;;;;;;10.60;100.00;99786.88;110334;1276;22293;-66
2023/03/20 10:36:49;;;;;;;16.40;12.10;;;;;;;10.57;100.00;99789.59;110282;1276;22500;-66
2023/03/20 10:39:49;;;;;;;16.00;11.90;;;;;;;10.54;100.00;99790.46;110315;1275;23214;-67
2023/03/20 10:42:38;;;;;;;17.20;13.00;;;;;;;10.63;100.00;99781.16;110382;1276;22199;-66
2023/03/20 10:45:18;;;;;;;17.00;12.60;;;;;;;10.64;100.00;99774.09;110110;1276;22290;-66
2023/03/20 10:47:47;;;;;;;16.30;12.70;;;;;;;10.73;100.00;99774.31;110333;1276;22172;-66
2023/03/20 10:50:22;;;;;;;17.40;13.10;;;;;;;10.85;100.00;99783.95;110303;1276;22868;-67
2023/03/20 10:52:50;;;;;;;18.80;13.10;;;;;;;10.87;100.00;99773.48;110107;1276;22414;-67
2023/03/20 10:55:23;;;;;;;16.60;13.00;;;;;;;10.72;100.00;99762.98;110288;1276;22243;-66
2023/03/20 11:00:47;;;;;;;16.70;11.40;;;;;;;10.84;100.00;99754.10;103716;1305;545142;-64
2023/03/20 11:03:27;;;;;;;16.20;13.00;;;;;;;10.87;100.00;99756.16;106074;1287;22537;-66
2023/03/20 11:06:03;;;;;;;16.60;13.10;;;;;;;10.73;100.00;99751.37;106718;1288;22991;-66
2023/03/20 11:08:45;;;;;;;19.10;14.10;;;;;;;10.69;100.00;99747.90;106912;1286;22542;-66
2023/03/20 11:11:13;;;;;;;17.80;12.90;;;;;;;10.71;100.00;99742.55;106532;1288;22897;-66
2023/03/20 11:13:42;;;;;;;18.60;13.50;;;;;;;10.75;100.00;99743.77;106266;1286;275485;-66
2023/03/20 11:16:22;;;;;;;17.10;12.50;;;;;;;10.86;100.00;99745.01;106958;1286;22702;-67
2023/03/20 11:18:52;;;;;;;15.70;12.60;;;;;;;10.94;100.00;99738.46;106854;1286;26490;-66
2023/03/20 11:21:26;;;;;;;17.80;13.50;;;;;;;11.00;100.00;99734.64;106659;1286;25372;-66
2023/03/20 11:23:56;;;;;;;18.50;14.40;;;;;;;11.05;100.00;99736.55;109749;1286;22870;-67
2023/03/20 11:26:30;;;;;;;22.70;15.60;;;;;;;11.05;100.00;99734.38;109753;1286;22463;-67
2023/03/20 11:29:00;;;;;;;39.70;26.80;;;;;;;10.96;100.00;99730.30;109706;1286;22501;-67
2023/03/20 11:31:36;;;;;;;24.70;18.50;;;;;;;10.92;100.00;99730.90;109624;1286;22400;-66
2023/03/20 11:34:10;;;;;;;42.90;27.60;;;;;;;11.02;100.00;99728.16;109671;1286;23334;-67
2023/03/20 11:36:40;;;;;;;26.60;18.70;;;;;;;11.15;100.00;99732.11;109734;1271;22733;-67